Time;durP1;ratioP1;P1;durP2;ratioP2;P2;SDS_P1;SDS_P2;PMS_P1;PMS_P2;Temp;Humidity;BMP_temperature;BMP_pressure;BME280_temperature;BME280_humidity;BME280_pressure;Samples;Min_cycle;Max_cycle;Signal;HPM_P1;HPM_P2
2022/08/28 00:02:59;;;;;;;;;;;;;;;23.90;52.83;95548.84;10248070;28;2129;-45
2022/08/28 00:08:01;;;;;;;;;;;;;;;23.92;52.84;95553.81;10245140;28;2023;-46
2022/08/28 00:13:02;;;;;;;;;;;;;;;23.88;53.29;95558.16;10247739;28;2078;-47
2022/08/28 00:18:02;;;;;;;;;;;;;;;23.97;53.25;95549.19;10243698;28;2145;-45
2022/08/28 00:23:03;;;;;;;;;;;;;;;24.08;52.56;95547.91;10253773;28;2002;-50
2022/08/28 00:28:05;;;;;;;;;;;;;;;24.14;52.37;95549.34;10251053;28;2165;-47
2022/08/28 00:33:09;;;;;;;;;;;;;;;24.18;52.25;95555.63;10258855;28;1996;-45
2022/08/28 00:38:10;;;;;;;;;;;;;;;24.20;52.34;95548.16;10253363;28;2364;-48
2022/08/28 00:43:11;;;;;;;;;;;;;;;24.24;52.03;95550.97;10242763;28;2037;-49
2022/08/28 00:48:11;;;;;;;;;;;;;;;24.23;52.01;95547.53;10252758;28;2018;-48
2022/08/28 00:53:11;;;;;;;;;;;;;;;24.27;51.95;95549.59;10251122;28;2022;-50
2022/08/28 00:58:11;;;;;;;;;;;;;;;24.28;52.00;95548.53;10268346;28;2066;-51
2022/08/28 01:03:12;;;;;;;;;;;;;;;24.29;51.87;95547.44;10254060;28;2057;-51
2022/08/28 01:08:12;;;;;;;;;;;;;;;24.29;51.65;95552.72;10246948;28;2070;-49
2022/08/28 01:13:13;;;;;;;;;;;;;;;24.29;51.98;95542.91;10244294;28;2184;-46
2022/08/28 01:18:14;;;;;;;;;;;;;;;24.31;51.63;95543.41;10257662;28;2049;-48
2022/08/28 01:23:26;;;;;;;;;;;;;;;24.30;51.77;95538.41;10262448;28;2037;-45
2022/08/28 01:28:27;;;;;;;;;;;;;;;24.30;51.86;95533.13;10243210;28;2081;-47
2022/08/28 01:33:27;;;;;;;;;;;;;;;24.30;51.77;95528.56;10242643;28;2095;-47
2022/08/28 01:38:27;;;;;;;;;;;;;;;24.32;51.65;95536.25;10244405;28;2091;-49
2022/08/28 01:43:30;;;;;;;;;;;;;;;24.31;52.03;95537.31;10242327;28;2058;-46
2022/08/28 01:48:31;;;;;;;;;;;;;;;24.32;51.81;95538.91;10244661;28;2019;-45
2022/08/28 01:53:32;;;;;;;;;;;;;;;24.32;51.42;95528.31;10243224;28;2090;-48
2022/08/28 01:58:32;;;;;;;;;;;;;;;24.33;51.55;95527.19;10243187;28;2037;-48
2022/08/28 02:03:32;;;;;;;;;;;;;;;24.33;51.79;95530.63;10259873;28;2001;-48
2022/08/28 02:08:33;;;;;;;;;;;;;;;24.34;51.63;95529.53;10244538;28;2069;-47
2022/08/28 02:13:36;;;;;;;;;;;;;;;24.34;51.53;95529.53;10242157;28;2061;-46
2022/08/28 02:18:36;;;;;;;;;;;;;;;24.35;51.45;95538.28;10240664;28;2470;-46
2022/08/28 02:23:38;;;;;;;;;;;;;;;24.35;51.33;95528.47;10243340;28;2061;-47
2022/08/28 02:28:39;;;;;;;;;;;;;;;24.36;51.14;95526.59;10244147;28;2035;-47
2022/08/28 02:33:40;;;;;;;;;;;;;;;24.36;51.20;95527.38;10243106;28;2093;-45
2022/08/28 02:38:41;;;;;;;;;;;;;;;24.37;51.31;95525.50;10245868;28;2132;-47
2022/08/28 02:43:41;;;;;;;;;;;;;;;24.36;51.30;95529.25;10242420;28;2153;-46
2022/08/28 02:48:42;;;;;;;;;;;;;;;24.37;51.16;95533.47;10246560;28;2059;-48
2022/08/28 02:53:42;;;;;;;;;;;;;;;24.36;50.95;95529.25;10249531;28;2101;-50
2022/08/28 02:58:43;;;;;;;;;;;;;;;24.36;51.06;95527.38;10245253;28;2168;-46
2022/08/28 03:03:43;;;;;;;;;;;;;;;24.38;51.00;95532.38;10249327;28;2130;-45
2022/08/28 03:08:43;;;;;;;;;;;;;;;24.36;51.01;95532.66;10246903;28;2038;-49
2022/08/28 03:13:44;;;;;;;;;;;;;;;24.38;51.11;95529.72;10249889;28;2043;-47
2022/08/28 03:18:44;;;;;;;;;;;;;;;24.38;51.05;95529.72;10248718;28;2238;-50
2022/08/28 03:23:46;;;;;;;;;;;;;;;24.37;51.01;95528.94;10250915;28;2081;-46
2022/08/28 03:28:47;;;;;;;;;;;;;;;24.37;51.11;95523.66;10250662;28;2114;-46
2022/08/28 03:33:47;;;;;;;;;;;;;;;24.37;51.02;95531.59;10248371;28;2069;-48
2022/08/28 03:38:48;;;;;;;;;;;;;;;24.38;50.81;95535.03;10248835;28;2379;-48
2022/08/28 03:43:48;;;;;;;;;;;;;;;24.38;51.09;95537.69;10245447;28;2007;-47
2022/08/28 03:48:49;;;;;;;;;;;;;;;24.38;50.76;95540.34;10245683;28;2039;-45
2022/08/28 03:53:49;;;;;;;;;;;;;;;24.38;50.89;95545.63;10244681;28;2058;-47
2022/08/28 03:58:50;;;;;;;;;;;;;;;24.39;50.86;95541.88;10244718;28;2303;-48
2022/08/28 04:03:50;;;;;;;;;;;;;;;24.37;50.98;95544.84;10245965;28;2002;-46
2022/08/28 04:08:50;;;;;;;;;;;;;;;24.38;50.75;95549.03;10251236;28;1994;-49
2022/08/28 04:13:50;;;;;;;;;;;;;;;24.38;50.82;95542.97;10247727;28;2014;-51
2022/08/28 04:18:51;;;;;;;;;;;;;;;24.38;50.83;95550.94;10245899;28;2077;-48
2022/08/28 04:23:52;;;;;;;;;;;;;;;24.38;50.95;95545.63;10250556;28;2273;-46
2022/08/28 04:28:53;;;;;;;;;;;;;;;24.39;50.96;95549.81;10247116;28;1983;-48
2022/08/28 04:33:54;;;;;;;;;;;;;;;24.39;51.00;95555.13;10245794;28;2065;-50
2022/08/28 04:38:56;;;;;;;;;;;;;;;24.38;50.82;95550.94;10243999;28;2263;-47
2022/08/28 04:43:57;;;;;;;;;;;;;;;24.39;50.87;95552.47;10245341;28;2065;-46
2022/08/28 04:48:57;;;;;;;;;;;;;;;24.38;50.70;95551.69;10244776;28;2006;-46
2022/08/28 04:53:57;;;;;;;;;;;;;;;24.39;50.58;95552.47;10243795;28;2157;-47
2022/08/28 04:58:59;;;;;;;;;;;;;;;24.38;50.82;95557.00;10241342;28;2026;-47
2022/08/28 05:03:59;;;;;;;;;;;;;;;24.40;50.73;95554.06;10243181;28;1995;-47
2022/08/28 05:09:00;;;;;;;;;;;;;;;24.39;50.82;95563.06;10244387;28;2054;-46
2022/08/28 05:14:04;;;;;;;;;;;;;;;24.39;50.68;95560.44;10240767;28;2009;-44
2022/08/28 05:19:04;;;;;;;;;;;;;;;24.40;50.94;95575.25;10243940;28;2051;-47
2022/08/28 05:24:05;;;;;;;;;;;;;;;24.39;50.90;95577.13;10243435;28;2045;-49
2022/08/28 05:29:05;;;;;;;;;;;;;;;24.39;50.70;95584.28;10244229;28;2142;-46
2022/08/28 05:34:06;;;;;;;;;;;;;;;24.39;50.82;95584.28;10246059;28;2061;-49
2022/08/28 05:39:08;;;;;;;;;;;;;;;24.38;50.75;95582.72;10245556;28;1990;-46
2022/08/28 05:44:09;;;;;;;;;;;;;;;24.39;50.76;95589.56;10243062;28;1946;-49
2022/08/28 05:49:09;;;;;;;;;;;;;;;24.39;50.70;95597.53;10244539;28;2065;-47
2022/08/28 05:54:09;;;;;;;;;;;;;;;24.38;50.77;95595.97;10243817;28;2014;-50
2022/08/28 05:59:10;;;;;;;;;;;;;;;24.39;50.81;95595.66;10242382;28;2065;-46
2022/08/28 06:04:11;;;;;;;;;;;;;;;24.39;50.72;95597.53;10244258;28;2038;-50
2022/08/28 06:09:13;;;;;;;;;;;;;;;24.39;51.07;95594.88;10244511;28;2062;-45
2022/08/28 06:14:17;;;;;;;;;;;;;;;24.40;50.81;95601.75;10242710;28;2038;-50
2022/08/28 06:19:17;;;;;;;;;;;;;;;24.40;50.83;95601.75;10243303;28;2050;-47
2022/08/28 06:24:18;;;;;;;;;;;;;;;24.39;50.65;95600.16;10250656;28;2061;-45
2022/08/28 06:29:19;;;;;;;;;;;;;;;24.39;50.67;95606.25;10253011;28;2092;-47
2022/08/28 06:34:19;;;;;;;;;;;;;;;24.39;50.85;95603.59;10251109;28;2063;-47
2022/08/28 06:39:20;;;;;;;;;;;;;;;24.40;50.76;95612.34;10249223;28;2147;-46
2022/08/28 06:44:20;;;;;;;;;;;;;;;24.39;50.86;95614.19;10253051;28;1915;-46
2022/08/28 06:49:20;;;;;;;;;;;;;;;24.40;51.02;95612.34;10255453;28;1785;-49
2022/08/28 06:54:21;;;;;;;;;;;;;;;24.38;51.13;95619.81;10257533;28;1903;-48
2022/08/28 06:59:21;;;;;;;;;;;;;;;24.39;50.94;95610.75;10252801;28;1902;-45
2022/08/28 07:04:22;;;;;;;;;;;;;;;24.39;51.10;95618.72;10253406;28;1898;-47
2022/08/28 07:09:23;;;;;;;;;;;;;;;24.39;51.24;95622.16;10252256;28;1884;-46
2022/08/28 07:14:23;;;;;;;;;;;;;;;24.40;51.00;95628.25;10249450;28;1996;-48
2022/08/28 07:19:23;;;;;;;;;;;;;;;24.39;51.44;95634.59;10253376;28;1915;-48
2022/08/28 07:24:23;;;;;;;;;;;;;;;24.40;51.34;95641.50;10252138;28;1875;-45
2022/08/28 07:29:24;;;;;;;;;;;;;;;24.37;51.22;95632.28;10253097;28;1973;-47
2022/08/28 07:34:27;;;;;;;;;;;;;;;24.38;51.32;95641.75;10257672;28;1949;-45
2022/08/28 07:39:27;;;;;;;;;;;;;;;24.37;51.54;95644.72;10250337;28;2002;-48
2022/08/28 07:49:47;;;;;;;;;;;;;;;24.37;50.81;95650.81;10246530;28;2192;-48
2022/08/28 07:54:48;;;;;;;;;;;;;;;24.35;50.85;95646.88;10249670;28;2129;-51
2022/08/28 07:59:51;;;;;;;;;;;;;;;24.35;51.17;95646.88;10259317;28;2070;-47
2022/08/28 08:04:51;;;;;;;;;;;;;;;24.35;51.00;95654.84;10243217;28;2062;-49
2022/08/28 08:09:51;;;;;;;;;;;;;;;24.34;50.85;95667.28;10247263;28;2049;-50
2022/08/28 08:14:52;;;;;;;;;;;;;;;24.35;51.04;95676.03;10244891;28;1997;-47
2022/08/28 08:19:53;;;;;;;;;;;;;;;24.36;50.91;95682.91;10248015;28;2046;-50
2022/08/28 08:24:54;;;;;;;;;;;;;;;24.37;50.80;95687.91;10229603;28;2004;-45
2022/08/28 08:29:54;;;;;;;;;;;;;;;24.36;50.46;95685.56;10243539;28;2383;-50
2022/08/28 08:34:54;;;;;;;;;;;;;;;24.38;50.62;95680.75;10243793;28;2129;-47
2022/08/28 08:39:56;;;;;;;;;;;;;;;24.37;50.33;95684.47;10240074;28;2073;-46
2022/08/28 08:44:57;;;;;;;;;;;;;;;24.39;50.12;95690.25;10240563;28;2154;-49
2022/08/28 08:49:59;;;;;;;;;;;;;;;24.39;51.54;95692.91;10244071;28;2063;-54
2022/08/28 08:55:05;;;;;;;;;;;;;;;24.35;52.04;95708.63;10252806;28;2064;-49
2022/08/28 09:00:07;;;;;;;;;;;;;;;24.30;52.56;95702.66;10238624;28;2092;-48
2022/08/28 09:05:11;;;;;;;;;;;;;;;24.29;52.15;95711.66;10252097;28;2170;-55
2022/08/28 09:10:13;;;;;;;;;;;;;;;24.22;53.46;95715.50;10237996;28;1959;-51
2022/08/28 09:15:14;;;;;;;;;;;;;;;24.20;53.62;95712.38;10241423;28;2055;-52
2022/08/28 09:20:15;;;;;;;;;;;;;;;24.17;53.87;95720.13;10254864;28;1970;-54
2022/08/28 09:25:34;;;;;;;;;;;;;;;24.14;53.73;95713.56;10239555;28;1922;-53
2022/08/28 09:30:34;;;;;;;;;;;;;;;24.14;54.32;95720.72;10244343;28;1934;-51
2022/08/28 09:35:38;;;;;;;;;;;;;;;24.12;54.12;95712.28;10257441;28;1914;-48
2022/08/28 09:46:03;;;;;;;;;;;;;;;24.09;54.38;95724.25;10200337;28;1236291;-49
2022/08/28 09:51:10;;;;;;;;;;;;;;;24.08;54.29;95735.94;10245599;28;1905;-48
2022/08/28 09:56:12;;;;;;;;;;;;;;;24.07;54.55;95728.28;10243878;28;1900;-49
2022/08/28 10:01:12;;;;;;;;;;;;;;;24.01;54.71;95727.56;10262504;28;1922;-49
2022/08/28 10:06:14;;;;;;;;;;;;;;;24.01;54.68;95746.09;10250125;28;1912;-48
2022/08/28 10:11:18;;;;;;;;;;;;;;;24.01;54.68;95743.44;10263998;28;2051;-48
2022/08/28 10:16:19;;;;;;;;;;;;;;;24.00;54.89;95755.13;10248078;28;1839;-47
2022/08/28 10:21:25;;;;;;;;;;;;;;;24.01;55.05;95759.34;10254253;28;1939;-48
2022/08/28 10:26:27;;;;;;;;;;;;;;;23.99;55.16;95753.56;10252484;28;1978;-47
2022/08/28 10:31:35;;;;;;;;;;;;;;;23.96;55.37;95754.16;10250934;28;1883;-46
2022/08/28 10:36:35;;;;;;;;;;;;;;;23.94;55.57;95758.97;10250828;28;1780;-47
2022/08/28 10:41:46;;;;;;;;;;;;;;;23.94;55.55;95764.25;10252687;28;2122;-48
2022/08/28 10:46:51;;;;;;;;;;;;;;;23.94;55.67;95761.59;10246994;28;1843;-47
2022/08/28 10:51:58;;;;;;;;;;;;;;;23.95;55.50;95749.91;10247515;28;1960;-47
2022/08/28 10:57:05;;;;;;;;;;;;;;;23.97;55.44;95760.22;10249964;28;1902;-49
2022/08/28 11:02:07;;;;;;;;;;;;;;;23.97;55.51;95758.34;10248996;28;1910;-50
2022/08/28 11:07:08;;;;;;;;;;;;;;;24.00;55.63;95757.78;10250628;28;1887;-46
2022/08/28 11:12:14;;;;;;;;;;;;;;;23.99;55.51;95761.50;10260901;28;1908;-47
2022/08/28 11:17:21;;;;;;;;;;;;;;;23.98;55.78;95759.94;10263337;28;1906;-47
2022/08/28 11:22:21;;;;;;;;;;;;;;;23.99;55.88;95761.50;10243133;28;1824;-49
2022/08/28 11:27:21;;;;;;;;;;;;;;;24.02;55.66;95757.47;10247952;28;1915;-49
2022/08/28 11:32:45;;;;;;;;;;;;;;;24.01;55.69;95761.97;10246611;28;1789;-48
2022/08/28 11:37:46;;;;;;;;;;;;;;;24.01;55.48;95759.34;10239027;28;2026;-48
2022/08/28 11:42:49;;;;;;;;;;;;;;;24.04;56.89;95758.00;10258784;28;1926;-46
2022/08/28 11:47:55;;;;;;;;;;;;;;;24.05;57.34;95767.53;10261976;28;1975;-49
2022/08/28 11:53:08;;;;;;;;;;;;;;;24.07;58.27;95770.66;10256672;28;1860;-49
2022/08/28 11:58:20;;;;;;;;;;;;;;;24.04;57.52;95769.38;10262057;28;1994;-47
2022/08/28 12:03:23;;;;;;;;;;;;;;;24.04;58.10;95779.19;10246373;28;1984;-48
2022/08/28 12:08:42;;;;;;;;;;;;;;;24.04;57.90;95771.25;10243597;28;1891;-48
2022/08/28 12:13:51;;;;;;;;;;;;;;;24.00;57.75;95773.66;10241544;28;1914;-45
2022/08/28 12:18:51;;;;;;;;;;;;;;;24.00;57.59;95767.56;10244592;28;1990;-45
2022/08/28 12:23:56;;;;;;;;;;;;;;;23.99;58.48;95768.66;10248655;28;1844;-46
2022/08/28 12:28:57;;;;;;;;;;;;;;;24.01;58.88;95763.84;10258326;28;1923;-51
2022/08/28 12:33:59;;;;;;;;;;;;;;;24.03;59.12;95766.97;10249497;28;1990;-47
2022/08/28 12:39:00;;;;;;;;;;;;;;;24.04;58.53;95761.44;10259082;28;2113;-47
2022/08/28 12:44:00;;;;;;;;;;;;;;;24.02;58.93;95768.88;10258023;28;1877;-46
2022/08/28 12:49:01;;;;;;;;;;;;;;;24.05;59.11;95768.28;10246965;28;1875;-47
2022/08/28 12:54:02;;;;;;;;;;;;;;;24.06;58.67;95772.53;10240341;28;2024;-49
2022/08/28 12:59:20;;;;;;;;;;;;;;;24.09;57.66;95771.16;10243261;28;1985;-46
2022/08/28 13:04:28;;;;;;;;;;;;;;;24.10;59.26;95765.56;10245601;28;1902;-47
2022/08/28 13:09:29;;;;;;;;;;;;;;;24.11;58.88;95769.75;10242316;28;1938;-50
2022/08/28 13:14:55;;;;;;;;;;;;;;;24.10;58.90;95770.06;10239910;28;1880;-48
2022/08/28 13:20:07;;;;;;;;;;;;;;;24.01;60.60;95775.22;10241690;28;2065;-49
2022/08/28 13:25:08;;;;;;;;;;;;;;;23.99;62.09;95766.78;10243941;28;1804;-48
2022/08/28 13:30:19;;;;;;;;;;;;;;;23.97;62.26;95763.66;10243309;28;1890;-52
2022/08/28 13:35:19;;;;;;;;;;;;;;;23.95;62.53;95763.16;10242718;28;1887;-49
2022/08/28 13:40:40;;;;;;;;;;;;;;;23.94;63.14;95774.06;10242877;28;2148;-48
2022/08/28 13:45:41;;;;;;;;;;;;;;;23.88;63.23;95760.13;10238675;28;2003;-47
2022/08/28 13:50:45;;;;;;;;;;;;;;;23.89;63.32;95761.69;10242557;28;1907;-50
2022/08/28 13:55:45;;;;;;;;;;;;;;;23.87;63.59;95766.50;10246181;28;1974;-48
2022/08/28 14:00:46;;;;;;;;;;;;;;;23.90;63.62;95768.56;10244200;28;1907;-51
2022/08/28 14:05:47;;;;;;;;;;;;;;;23.92;63.73;95766.41;10244255;28;2096;-49
2022/08/28 14:10:47;;;;;;;;;;;;;;;23.92;63.69;95774.34;10242633;28;1875;-47
2022/08/28 14:15:48;;;;;;;;;;;;;;;23.92;63.70;95765.63;10256905;28;1923;-50
2022/08/28 14:20:48;;;;;;;;;;;;;;;23.89;63.90;95772.28;10240457;28;2095;-50
2022/08/28 14:25:49;;;;;;;;;;;;;;;23.91;64.15;95771.97;10243858;28;1885;-48
2022/08/28 14:30:49;;;;;;;;;;;;;;;23.91;63.98;95770.13;10239420;28;1874;-48
2022/08/28 14:35:52;;;;;;;;;;;;;;;23.91;64.01;95770.13;10240397;28;1925;-52
2022/08/28 14:40:52;;;;;;;;;;;;;;;23.89;64.01;95761.69;10243868;28;1971;-49
2022/08/28 14:45:52;;;;;;;;;;;;;;;23.89;64.04;95760.91;10243543;28;2134;-48
2022/08/28 14:50:53;;;;;;;;;;;;;;;23.89;64.18;95758.25;10250281;28;1852;-47
2022/08/28 14:55:53;;;;;;;;;;;;;;;23.88;64.29;95760.13;10247465;28;1913;-51
2022/08/28 15:00:53;;;;;;;;;;;;;;;23.85;64.61;95765.22;10250257;28;1899;-51
2022/08/28 15:05:59;;;;;;;;;;;;;;;23.80;64.89;95767.97;10250448;28;1891;-54
2022/08/28 15:11:04;;;;;;;;;;;;;;;23.79;65.15;95767.19;10258509;28;1987;-52
2022/08/28 15:16:06;;;;;;;;;;;;;;;23.80;65.25;95762.69;10251065;28;1776;-53
2022/08/28 15:21:13;;;;;;;;;;;;;;;23.81;65.08;95759.72;10248023;28;1907;-50
2022/08/28 15:26:14;;;;;;;;;;;;;;;23.81;65.19;95754.44;10253022;28;1856;-52
2022/08/28 15:31:15;;;;;;;;;;;;;;;23.82;64.97;95756.00;10249611;28;1843;-53
2022/08/28 15:36:16;;;;;;;;;;;;;;;23.81;65.19;95759.72;10248899;28;1904;-54
2022/08/28 15:41:36;;;;;;;;;;;;;;;23.80;64.96;95752.84;10248276;28;1906;-52
2022/08/28 15:46:37;;;;;;;;;;;;;;;23.81;64.97;95754.44;10245155;28;1956;-54
2022/08/28 15:51:37;;;;;;;;;;;;;;;23.79;65.24;95751.31;10246314;28;1840;-54
2022/08/28 15:56:37;;;;;;;;;;;;;;;23.80;65.00;95741.50;10249357;28;1920;-50
2022/08/28 16:01:38;;;;;;;;;;;;;;;23.80;65.22;95739.63;10242960;28;1950;-54
2022/08/28 16:06:38;;;;;;;;;;;;;;;23.79;65.48;95743.34;10247265;28;1923;-52
2022/08/28 16:11:40;;;;;;;;;;;;;;;23.78;65.10;95741.78;10241002;28;1833;-51
2022/08/28 16:16:41;;;;;;;;;;;;;;;23.76;65.48;95736.00;10238590;28;1782;-51
2022/08/28 16:21:43;;;;;;;;;;;;;;;23.73;65.63;95735.81;10238950;28;1995;-49
2022/08/28 16:26:44;;;;;;;;;;;;;;;23.73;65.29;95744.53;10237700;28;1883;-51
2022/08/28 16:31:44;;;;;;;;;;;;;;;23.69;65.56;95734.81;10243358;28;2204;-48
2022/08/28 16:36:46;;;;;;;;;;;;;;;23.68;65.46;95738.56;10248482;28;1863;-50
2022/08/28 16:41:49;;;;;;;;;;;;;;;23.66;65.55;95730.88;10239552;28;1914;-52
2022/08/28 16:46:49;;;;;;;;;;;;;;;23.65;65.48;95731.19;10240177;28;1852;-48
2022/08/28 16:51:49;;;;;;;;;;;;;;;23.64;65.37;95735.69;10242135;28;1930;-51
2022/08/28 16:56:50;;;;;;;;;;;;;;;23.63;65.78;95736.78;10244917;28;1785;-49
2022/08/28 17:01:50;;;;;;;;;;;;;;;23.63;65.47;95747.38;10239433;28;1985;-52
2022/08/28 17:06:55;;;;;;;;;;;;;;;23.62;65.68;95751.09;10236721;28;2050;-51
2022/08/28 17:11:56;;;;;;;;;;;;;;;23.61;65.35;95749.53;10241577;28;1891;-50
2022/08/28 17:16:56;;;;;;;;;;;;;;;23.63;65.90;95759.81;10242017;28;2004;-54
2022/08/28 17:27:16;;;;;;;;;;;;;;;23.58;65.52;95763.31;10259308;28;1894;-48
2022/08/28 17:32:23;;;;;;;;;;;;;;;23.59;65.23;95767.56;10255145;28;1870;-50
2022/08/28 17:37:23;;;;;;;;;;;;;;;23.57;65.32;95775.00;10250944;28;1949;-50
2022/08/28 17:42:24;;;;;;;;;;;;;;;23.55;65.27;95777.16;10276019;28;1972;-52
2022/08/28 17:47:24;;;;;;;;;;;;;;;23.54;65.14;95774.78;10254522;28;1907;-49
2022/08/28 17:52:24;;;;;;;;;;;;;;;23.52;65.19;95780.38;10253127;28;2037;-48
2022/08/28 17:57:26;;;;;;;;;;;;;;;23.52;65.26;95783.00;10243408;28;1909;-49
2022/08/28 18:02:26;;;;;;;;;;;;;;;23.51;65.09;95792.03;10246972;28;1907;-50
2022/08/28 18:07:27;;;;;;;;;;;;;;;23.50;65.26;95792.31;10240821;28;1901;-49
2022/08/28 18:12:27;;;;;;;;;;;;;;;23.49;65.11;95783.63;10243757;28;1902;-52
2022/08/28 18:17:27;;;;;;;;;;;;;;;23.49;65.07;95791.56;10247201;28;1831;-51
2022/08/28 18:22:28;;;;;;;;;;;;;;;23.52;65.78;95785.66;10246313;28;1915;-51
2022/08/28 18:27:30;;;;;;;;;;;;;;;23.55;65.88;95805.47;10251133;28;1982;-53
2022/08/28 18:32:30;;;;;;;;;;;;;;;23.58;66.57;95807.53;10255208;28;1827;-53
2022/08/28 18:37:30;;;;;;;;;;;;;;;23.59;66.48;95812.53;10249912;28;1990;-51
2022/08/28 18:42:31;;;;;;;;;;;;;;;23.63;66.14;95823.31;10245313;28;1927;-49
2022/08/28 18:47:32;;;;;;;;;;;;;;;23.62;66.49;95829.72;10247743;28;1922;-49
2022/08/28 18:52:32;;;;;;;;;;;;;;;23.61;66.19;95825.47;10247142;28;1871;-51
2022/08/28 18:57:32;;;;;;;;;;;;;;;23.63;66.45;95828.63;10253214;28;1914;-51
2022/08/28 19:02:33;;;;;;;;;;;;;;;23.65;66.53;95839.69;10250197;28;1782;-52
2022/08/28 19:07:34;;;;;;;;;;;;;;;23.64;66.58;95846.06;10262943;28;2022;-51
2022/08/28 19:12:34;;;;;;;;;;;;;;;23.63;66.77;95841.84;10244257;28;1899;-52
2022/08/28 19:17:35;;;;;;;;;;;;;;;23.59;67.02;95846.16;10247775;28;1919;-48
2022/08/28 19:22:37;;;;;;;;;;;;;;;23.54;66.69;95844.38;10253453;28;1938;-51
2022/08/28 19:27:38;;;;;;;;;;;;;;;23.54;66.81;95849.66;10253747;28;1836;-52
2022/08/28 19:32:39;;;;;;;;;;;;;;;23.55;66.92;95855.75;10255423;28;1895;-48
2022/08/28 19:37:39;;;;;;;;;;;;;;;23.56;67.04;95850.16;10247934;28;1970;-53
2022/08/28 19:42:39;;;;;;;;;;;;;;;23.57;67.17;95857.03;10246787;28;1930;-49
2022/08/28 19:47:39;;;;;;;;;;;;;;;23.55;67.18;95855.75;10247121;28;1927;-50
2022/08/28 19:52:40;;;;;;;;;;;;;;;23.54;66.86;95859.44;10243533;28;1982;-51
2022/08/28 19:57:40;;;;;;;;;;;;;;;23.50;66.81;95863.75;10245357;28;1910;-52
2022/08/28 20:02:41;;;;;;;;;;;;;;;23.52;66.89;95872.19;10248416;28;1978;-50
2022/08/28 20:07:42;;;;;;;;;;;;;;;23.53;67.26;95879.84;10248543;28;2167;-48
2022/08/28 20:12:45;;;;;;;;;;;;;;;23.52;66.96;95872.19;10243377;28;1965;-49
2022/08/28 20:17:47;;;;;;;;;;;;;;;23.48;66.55;95879.91;10245199;28;1906;-50
2022/08/28 20:22:47;;;;;;;;;;;;;;;23.46;66.34;95879.41;10247497;28;1890;-52
2022/08/28 20:27:48;;;;;;;;;;;;;;;23.42;66.12;95876.56;10249662;28;1891;-51
2022/08/28 20:32:48;;;;;;;;;;;;;;;23.40;66.23;95875.28;10245966;28;2088;-50
2022/08/28 20:37:48;;;;;;;;;;;;;;;23.38;66.00;95877.44;10243961;28;1935;-52
2022/08/28 20:42:49;;;;;;;;;;;;;;;23.40;66.13;95875.28;10244018;28;1854;-52
2022/08/28 20:47:52;;;;;;;;;;;;;;;23.39;66.13;95873.69;10247583;28;1934;-52
2022/08/28 20:52:53;;;;;;;;;;;;;;;23.38;66.27;95866.84;10247763;28;1944;-53
2022/08/28 20:57:53;;;;;;;;;;;;;;;23.37;66.15;95870.56;10249109;28;1911;-51
2022/08/28 21:02:53;;;;;;;;;;;;;;;23.36;65.96;95875.09;10244113;28;1904;-52
2022/08/28 21:07:54;;;;;;;;;;;;;;;23.32;65.35;95878.59;10245864;28;1779;-51
2022/08/28 21:12:54;;;;;;;;;;;;;;;23.31;65.04;95883.06;10235802;28;1926;-48
2022/08/28 21:17:54;;;;;;;;;;;;;;;23.29;65.33;95873.81;10242939;28;1985;-50
2022/08/28 21:22:55;;;;;;;;;;;;;;;23.29;65.18;95885.19;10248071;28;1972;-50
2022/08/28 21:27:55;;;;;;;;;;;;;;;23.28;65.12;95888.16;10240273;28;2001;-48
2022/08/28 21:32:55;;;;;;;;;;;;;;;23.25;64.91;95888.69;10249389;28;1930;-52
2022/08/28 21:37:56;;;;;;;;;;;;;;;23.24;64.75;95890.59;10250856;28;1942;-52
2022/08/28 21:42:56;;;;;;;;;;;;;;;23.23;64.66;95896.13;10256599;28;1913;-51
2022/08/28 21:47:56;;;;;;;;;;;;;;;23.21;64.45;95891.16;10256395;28;1809;-49
2022/08/28 21:52:56;;;;;;;;;;;;;;;23.21;64.33;95887.69;10251686;28;1970;-51
2022/08/28 21:57:57;;;;;;;;;;;;;;;23.20;64.05;95886.16;10259366;28;1906;-54
2022/08/28 22:02:57;;;;;;;;;;;;;;;23.17;63.95;95897.28;10246138;28;2060;-52
2022/08/28 22:07:57;;;;;;;;;;;;;;;23.18;64.35;95890.94;10250966;28;1958;-52
2022/08/28 22:12:57;;;;;;;;;;;;;;;23.18;63.77;95897.03;10250581;28;1982;-54
2022/08/28 22:17:58;;;;;;;;;;;;;;;23.16;63.70;95899.13;10249489;28;2024;-53
2022/08/28 22:23:10;;;;;;;;;;;;;;;23.14;63.47;95896.00;10246326;28;1940;-53
2022/08/28 22:28:14;;;;;;;;;;;;;;;23.14;63.55;95895.22;10253481;28;1978;-51
2022/08/28 22:33:14;;;;;;;;;;;;;;;23.13;63.68;95891.00;10249945;28;2046;-51
2022/08/28 22:38:14;;;;;;;;;;;;;;;23.11;63.20;95890.50;10250265;28;1976;-54
2022/08/28 22:43:15;;;;;;;;;;;;;;;23.10;63.12;95899.50;10250118;28;1902;-53
2022/08/28 22:48:15;;;;;;;;;;;;;;;23.10;63.30;95896.88;10250110;28;1887;-51
2022/08/28 22:53:16;;;;;;;;;;;;;;;23.10;63.20;95902.91;10247639;28;1851;-53
2022/08/28 22:58:16;;;;;;;;;;;;;;;23.08;62.86;95896.38;10249132;28;1977;-54
2022/08/28 23:03:16;;;;;;;;;;;;;;;23.09;63.15;95901.38;10248727;28;1966;-53
2022/08/28 23:08:17;;;;;;;;;;;;;;;23.09;63.05;95895.28;10247278;28;1876;-51
2022/08/28 23:13:18;;;;;;;;;;;;;;;23.07;62.92;95895.56;10249612;28;2017;-52
2022/08/28 23:18:19;;;;;;;;;;;;;;;23.05;62.95;95896.94;10262624;28;1973;-51
2022/08/28 23:23:20;;;;;;;;;;;;;;;23.05;62.53;95900.38;10249577;28;1840;-49
2022/08/28 23:28:20;;;;;;;;;;;;;;;23.05;62.92;95902.22;10250766;28;1927;-52
2022/08/28 23:33:20;;;;;;;;;;;;;;;23.05;62.76;95895.06;10248114;28;1943;-51
2022/08/28 23:38:20;;;;;;;;;;;;;;;23.05;62.61;95896.94;10248500;28;1977;-51
2022/08/28 23:43:21;;;;;;;;;;;;;;;23.02;62.31;95893.00;10251448;28;1926;-51
2022/08/28 23:48:23;;;;;;;;;;;;;;;23.01;61.92;95888.00;10249134;28;1923;-52
2022/08/28 23:53:23;;;;;;;;;;;;;;;23.01;62.41;95877.41;10249712;28;1922;-51
2022/08/28 23:58:24;;;;;;;;;;;;;;;22.99;62.15;95879.56;10243774;28;2343;-53
